Time;durP1;ratioP1;P1;durP2;ratioP2;P2;SDS_P1;SDS_P2;PMS_P1;PMS_P2;Temp;Humidity;BMP_temperature;BMP_pressure;BME280_temperature;BME280_humidity;BME280_pressure;Samples;Min_cycle;Max_cycle;Signal;HPM_P1;HPM_P2
2021/05/14 00:00:16;;;;;;;35.10;18.13;;;;;;;14.15;70.92;97258.25;2001358;88;21070;-66
2021/05/14 00:03:19;;;;;;;37.53;18.70;;;;;;;14.00;72.10;97256.17;1981567;89;21089;-64
2021/05/14 00:06:20;;;;;;;35.33;17.63;;;;;;;13.83;72.48;97262.30;2001113;88;21587;-64
2021/05/14 00:09:22;;;;;;;35.43;17.60;;;;;;;13.65;72.07;97264.47;2001219;88;21033;-67
2021/05/14 00:12:23;;;;;;;33.40;17.55;;;;;;;13.55;71.56;97265.04;2000841;88;21085;-65
2021/05/14 00:15:25;;;;;;;33.83;18.83;;;;;;;13.72;71.37;97263.38;2001112;88;21041;-64
2021/05/14 00:18:26;;;;;;;37.33;19.47;;;;;;;13.80;71.29;97254.20;2001136;89;21052;-64
2021/05/14 00:21:28;;;;;;;37.93;20.40;;;;;;;13.84;72.44;97258.70;2000942;88;21104;-63
2021/05/14 00:24:29;;;;;;;35.57;19.53;;;;;;;13.77;73.30;97262.42;2001134;88;21006;-63
2021/05/14 00:27:30;;;;;;;37.00;20.80;;;;;;;13.63;73.96;97253.73;2001012;88;21588;-65
2021/05/14 00:30:32;;;;;;;39.33;21.63;;;;;;;13.59;73.25;97254.55;2001080;88;21038;-64
2021/05/14 00:33:33;;;;;;;38.43;21.10;;;;;;;13.64;73.67;97255.41;2000984;88;21089;-63
2021/05/14 00:36:35;;;;;;;35.87;20.90;;;;;;;13.60;73.85;97255.36;2002004;88;21085;-64
2021/05/14 00:39:36;;;;;;;36.08;19.92;;;;;;;13.56;74.06;97254.85;1982594;90;21090;-64
2021/05/14 00:42:38;;;;;;;38.03;20.70;;;;;;;13.46;74.49;97254.07;2002928;89;21655;-64
2021/05/14 00:45:39;;;;;;;42.27;19.83;;;;;;;13.28;76.01;97250.91;2003055;88;21066;-63
2021/05/14 00:48:41;;;;;;;34.90;19.37;;;;;;;13.16;75.65;97251.63;1982450;90;21599;-64
2021/05/14 00:51:42;;;;;;;37.23;18.97;;;;;;;13.08;75.77;97254.16;2002876;89;21097;-65
2021/05/14 00:54:44;;;;;;;41.70;19.70;;;;;;;13.04;75.97;97245.39;1982528;90;21061;-64
2021/05/14 00:57:45;;;;;;;37.27;19.60;;;;;;;12.97;75.75;97253.89;2002945;89;21608;-64
2021/05/14 01:00:47;;;;;;;38.25;19.73;;;;;;;12.90;75.97;97258.08;1982430;90;21136;-64
2021/05/14 01:03:48;;;;;;;39.30;19.73;;;;;;;12.79;76.25;97249.88;2002930;89;21635;-63
2021/05/14 01:06:49;;;;;;;35.67;19.83;;;;;;;12.75;77.05;97255.59;2003027;88;21078;-66
2021/05/14 01:09:51;;;;;;;36.10;19.17;;;;;;;12.64;76.66;97252.17;1982529;90;21062;-63
2021/05/14 01:12:54;;;;;;;37.93;19.12;;;;;;;12.56;76.51;97249.44;2002768;89;21094;-63
2021/05/14 01:15:55;;;;;;;37.40;19.52;;;;;;;12.52;76.88;97249.37;1982214;90;21049;-64
2021/05/14 01:18:57;;;;;;;36.45;19.32;;;;;;;12.43;77.15;97253.70;2002928;89;21124;-67
2021/05/14 01:21:59;;;;;;;37.00;20.07;;;;;;;12.35;77.81;97247.50;1982537;90;21108;-63
2021/05/14 01:25:00;;;;;;;36.03;19.62;;;;;;;12.20;79.05;97254.53;2002793;89;21073;-63
2021/05/14 01:28:02;;;;;;;36.90;18.90;;;;;;;12.05;78.91;97253.31;1982551;90;21033;-63
2021/05/14 01:31:03;;;;;;;36.50;20.20;;;;;;;11.86;79.35;97243.64;2002849;89;21607;-63
2021/05/14 01:34:07;;;;;;;36.70;18.70;;;;;;;11.86;79.35;97243.64;1982394;90;22058;-62
2021/05/14 01:37:08;;;;;;;39.23;19.57;;;;;;;11.98;78.19;97252.22;2001583;89;21703;-64
2021/05/14 01:40:09;;;;;;;40.58;20.90;;;;;;;12.06;77.89;97254.48;2001133;88;21124;-63
2021/05/14 01:43:11;;;;;;;35.58;18.82;;;;;;;12.04;77.94;97257.75;2001058;88;21057;-62
2021/05/14 01:46:13;;;;;;;35.38;18.15;;;;;;;11.96;77.54;97259.75;2000756;88;21117;-65
2021/05/14 01:49:14;;;;;;;33.93;18.47;;;;;;;12.07;77.36;97261.90;2000982;88;21090;-65
2021/05/14 01:52:16;;;;;;;33.28;18.32;;;;;;;12.15;76.59;97259.87;2000854;88;22283;-64
2021/05/14 01:55:17;;;;;;;34.40;17.17;;;;;;;12.15;76.31;97266.44;2001047;88;21014;-65
2021/05/14 01:58:19;;;;;;;35.07;17.00;;;;;;;12.23;76.40;97267.88;2000941;88;21045;-66
2021/05/14 02:01:21;;;;;;;33.60;17.97;;;;;;;12.12;76.33;97263.14;2000913;88;21033;-67
2021/05/14 02:04:22;;;;;;;31.95;16.45;;;;;;;12.12;76.33;97263.14;2000901;88;21607;-63
2021/05/14 02:07:24;;;;;;;34.35;16.10;;;;;;;12.03;77.19;97265.77;2000930;88;21563;-64
2021/05/14 02:10:25;;;;;;;32.23;16.63;;;;;;;11.87;76.98;97267.63;2001015;88;21387;-65
2021/05/14 02:13:27;;;;;;;32.90;15.57;;;;;;;11.84;77.95;97272.67;2000867;88;21673;-63
2021/05/14 02:16:28;;;;;;;32.40;15.13;;;;;;;11.75;77.80;97275.66;2001051;88;21073;-63
2021/05/14 02:19:30;;;;;;;31.37;13.50;;;;;;;11.64;78.68;97281.05;2001017;88;21141;-64
2021/05/14 02:22:31;;;;;;;33.42;14.30;;;;;;;11.42;79.00;97284.28;2000922;88;21061;-62
2021/05/14 02:25:33;;;;;;;30.53;13.80;;;;;;;11.30;79.76;97284.05;2001052;88;21042;-63
2021/05/14 02:28:34;;;;;;;28.75;14.45;;;;;;;11.19;80.09;97277.59;2000931;88;21081;-62
2021/05/14 02:31:36;;;;;;;32.20;15.00;;;;;;;11.04;80.91;97279.78;2000901;88;21058;-63
2021/05/14 02:34:37;;;;;;;34.37;16.03;;;;;;;10.97;80.89;97291.28;2001020;88;21088;-62
2021/05/14 02:37:38;;;;;;;31.93;16.07;;;;;;;10.90;80.90;97286.22;2000887;88;21692;-63
2021/05/14 02:40:40;;;;;;;33.60;17.27;;;;;;;10.85;81.09;97291.88;2000719;89;21132;-64
2021/05/14 02:43:42;;;;;;;36.00;18.20;;;;;;;10.83;81.22;97291.20;2001047;88;21041;-63
2021/05/14 02:46:43;;;;;;;42.40;20.17;;;;;;;10.82;82.38;97293.45;2000954;88;21544;-62
2021/05/14 02:49:45;;;;;;;41.70;22.27;;;;;;;10.81;83.72;97302.28;2001023;88;21045;-64
2021/05/14 02:52:46;;;;;;;42.80;22.17;;;;;;;10.81;84.03;97304.08;2000880;89;21085;-63
2021/05/14 02:55:47;;;;;;;44.55;21.80;;;;;;;10.82;83.92;97309.20;2000959;88;21049;-63
2021/05/14 02:58:49;;;;;;;48.13;24.25;;;;;;;10.81;86.53;97309.33;2001041;88;21033;-62
2021/05/14 03:01:50;;;;;;;50.15;25.75;;;;;;;10.80;87.03;97312.41;2000893;88;21544;-62
2021/05/14 03:04:52;;;;;;;48.90;25.05;;;;;;;10.83;87.72;97313.95;2000748;88;21022;-64
2021/05/14 03:07:53;;;;;;;52.73;27.55;;;;;;;10.87;86.92;97312.73;2000938;88;21133;-63
2021/05/14 03:10:55;;;;;;;52.10;26.80;;;;;;;10.91;86.92;97320.68;2000608;88;21536;-62
2021/05/14 03:13:56;;;;;;;51.02;26.20;;;;;;;10.98;87.01;97316.56;2000999;88;21065;-63
2021/05/14 03:16:59;;;;;;;54.03;26.87;;;;;;;11.04;86.81;97323.89;2001008;89;21038;-62
2021/05/14 03:20:01;;;;;;;55.30;28.67;;;;;;;11.12;87.31;97323.70;2000891;89;21141;-65
2021/05/14 03:23:02;;;;;;;57.00;29.15;;;;;;;11.14;87.50;97329.18;2001158;88;21170;-64
2021/05/14 03:26:03;;;;;;;54.53;29.40;;;;;;;11.18;87.92;97322.70;2001064;88;21557;-63
2021/05/14 03:29:05;;;;;;;57.50;30.23;;;;;;;11.25;87.46;97329.56;2001030;88;21061;-63
2021/05/14 03:32:06;;;;;;;54.40;30.32;;;;;;;11.32;87.29;97328.53;2001123;88;21120;-63
2021/05/14 03:35:08;;;;;;;57.73;30.70;;;;;;;11.37;86.60;97334.22;2001004;88;21462;-64
2021/05/14 03:38:09;;;;;;;56.70;30.92;;;;;;;11.48;86.36;97335.88;2002543;88;21129;-63
2021/05/14 03:44:14;;;;;;;57.60;29.40;;;;;;;11.61;85.43;97339.92;1981468;89;21575;-64
2021/05/14 03:47:17;;;;;;;56.18;31.23;;;;;;;11.65;85.62;97339.17;1982751;90;21025;-63
2021/05/14 03:50:18;;;;;;;57.27;30.92;;;;;;;11.71;86.15;97345.65;2002840;89;21092;-63
2021/05/14 03:53:19;;;;;;;56.73;30.50;;;;;;;11.76;85.60;97352.65;1982700;90;21072;-62
2021/05/14 03:56:21;;;;;;;59.90;32.08;;;;;;;11.84;86.43;97351.48;2003105;89;21519;-63
2021/05/14 03:59:22;;;;;;;56.73;31.53;;;;;;;11.89;86.58;97351.89;1982589;90;21033;-63
2021/05/14 04:02:24;;;;;;;55.83;31.42;;;;;;;11.99;85.43;97354.55;2003136;89;21077;-63
2021/05/14 04:05:25;;;;;;;53.00;30.30;;;;;;;12.01;85.80;97355.72;1982615;90;21032;-64
2021/05/14 04:08:27;;;;;;;59.27;32.37;;;;;;;12.04;85.78;97356.76;2003055;89;21053;-65
2021/05/14 04:14:32;;;;;;;55.65;30.50;;;;;;;12.18;84.95;97360.77;1981419;89;21077;-63
2021/05/14 04:17:34;;;;;;;;;;;;;;;12.23;85.16;97361.20;1984606;90;21037;-63
2021/05/14 04:20:35;;;;;;;52.90;29.98;;;;;;;12.27;85.23;97374.41;1969650;90;20284;-62
2021/05/14 04:23:37;;;;;;;55.15;31.15;;;;;;;12.31;85.00;97371.83;1982468;90;21600;-63
2021/05/14 04:26:38;;;;;;;51.63;29.43;;;;;;;12.41;84.92;97365.24;2003074;89;21113;-62
2021/05/14 04:29:40;;;;;;;52.00;29.15;;;;;;;12.52;84.53;97366.41;1982426;90;21238;-64
2021/05/14 04:32:41;;;;;;;50.50;29.67;;;;;;;12.53;83.46;97369.85;2003030;89;21536;-64
2021/05/14 04:35:43;;;;;;;51.03;29.23;;;;;;;12.62;83.68;97378.23;1982544;90;21041;-66
2021/05/14 04:38:44;;;;;;;47.33;27.20;;;;;;;12.62;83.08;97373.78;2001395;88;21092;-62
2021/05/14 04:41:46;;;;;;;48.47;26.27;;;;;;;12.67;83.11;97380.42;1996373;89;21028;-62
2021/05/14 04:44:47;;;;;;;47.13;28.33;;;;;;;12.60;82.53;97378.87;1983420;90;21023;-63
2021/05/14 04:47:49;;;;;;;47.80;28.02;;;;;;;12.55;83.28;97384.53;1983201;89;21162;-63
2021/05/14 04:50:50;;;;;;;48.08;28.80;;;;;;;12.55;82.80;97384.53;1983382;89;21075;-62
2021/05/14 04:53:52;;;;;;;48.67;28.30;;;;;;;12.56;82.68;97389.32;1983271;89;21074;-63
2021/05/14 04:56:53;;;;;;;52.97;29.87;;;;;;;12.63;82.67;97388.60;1983355;89;21020;-62
2021/05/14 04:59:55;;;;;;;48.43;27.93;;;;;;;12.72;82.42;97388.73;1983396;89;21040;-63
2021/05/14 05:02:56;;;;;;;47.60;28.03;;;;;;;12.72;82.42;97388.73;1983281;89;21610;-62
2021/05/14 05:05:58;;;;;;;47.48;26.17;;;;;;;12.77;81.96;97388.66;1983371;89;21046;-63
2021/05/14 05:08:59;;;;;;;49.67;28.57;;;;;;;12.81;81.12;97397.92;1983298;89;21055;-62
2021/05/14 05:12:01;;;;;;;48.42;27.13;;;;;;;12.81;81.60;97395.75;1983361;89;21134;-62
2021/05/14 05:15:02;;;;;;;51.58;29.63;;;;;;;12.76;81.18;97398.82;1983253;89;21059;-63
2021/05/14 05:18:04;;;;;;;48.73;29.42;;;;;;;12.72;81.82;97395.31;1983277;89;21027;-64
2021/05/14 05:21:06;;;;;;;50.30;29.10;;;;;;;12.77;81.22;97396.54;1983375;89;21143;-62
2021/05/14 05:24:07;;;;;;;55.80;31.60;;;;;;;12.84;81.87;97396.78;1983272;89;21648;-64
2021/05/14 05:27:09;;;;;;;50.25;30.52;;;;;;;12.98;80.45;97396.33;1983315;90;21131;-63
2021/05/14 05:30:10;;;;;;;54.60;31.30;;;;;;;13.12;80.96;97398.16;1983370;89;21119;-62
2021/05/14 05:33:12;;;;;;;55.13;32.57;;;;;;;13.16;79.17;97406.94;1983256;89;21091;-63
2021/05/14 05:36:13;;;;;;;59.90;34.25;;;;;;;13.16;80.14;97406.94;1983516;89;21019;-64
2021/05/14 05:39:14;;;;;;;53.37;30.80;;;;;;;13.20;78.64;97415.36;1981611;89;21656;-63
2021/05/14 05:42:16;;;;;;;54.20;32.27;;;;;;;13.30;77.91;97405.64;1996339;89;21014;-64
2021/05/14 05:45:17;;;;;;;52.17;33.38;;;;;;;13.50;77.96;97407.73;1996209;89;21077;-62
2021/05/14 05:48:19;;;;;;;54.90;31.57;;;;;;;13.67;77.53;97415.81;1996202;89;21085;-62
2021/05/14 05:51:21;;;;;;;55.30;33.38;;;;;;;13.80;76.74;97415.45;1996076;89;21093;-62
2021/05/14 05:54:22;;;;;;;53.93;33.23;;;;;;;13.98;75.89;97416.81;1996168;89;21101;-62
2021/05/14 05:57:24;;;;;;;54.00;32.93;;;;;;;14.06;75.66;97424.77;1996214;89;21045;-63
2021/05/14 06:00:25;;;;;;;52.77;31.93;;;;;;;13.98;75.61;97427.35;1996179;89;21053;-63
2021/05/14 06:03:27;;;;;;;55.97;32.33;;;;;;;14.06;76.48;97430.55;1996332;89;21112;-62
2021/05/14 06:06:28;;;;;;;53.73;32.00;;;;;;;14.12;76.80;97438.70;1996191;89;21630;-62
2021/05/14 06:09:30;;;;;;;56.88;33.80;;;;;;;14.06;75.35;97448.50;1996136;89;21113;-63
2021/05/14 06:12:31;;;;;;;55.67;34.40;;;;;;;13.97;76.24;97444.13;1996143;89;21548;-62
2021/05/14 06:15:33;;;;;;;58.20;34.80;;;;;;;13.88;76.12;97445.01;1996167;89;21061;-63
2021/05/14 06:18:38;;;;;;;62.43;35.97;;;;;;;13.91;76.55;97452.14;1996311;89;21110;-63
2021/05/14 06:21:44;;;;;;;61.25;34.15;;;;;;;13.99;75.05;97455.34;1999084;89;21121;-64
2021/05/14 06:24:41;;;;;;;51.48;32.40;;;;;;;14.13;75.80;97456.66;1999194;89;21145;-62
2021/05/14 06:27:42;;;;;;;52.67;32.77;;;;;;;14.36;75.03;97460.98;1996271;89;21596;-64
2021/05/14 06:30:44;;;;;;;53.42;31.42;;;;;;;14.55;74.18;97462.16;1996212;89;21124;-62
2021/05/14 06:33:45;;;;;;;52.88;30.52;;;;;;;14.75;73.61;97458.55;1996154;89;21090;-62
2021/05/14 06:36:47;;;;;;;50.10;30.00;;;;;;;14.85;72.25;97474.61;1996428;89;21116;-66
2021/05/14 06:39:48;;;;;;;53.55;30.72;;;;;;;14.92;72.37;97471.37;2002294;89;21351;-64
2021/05/14 06:42:50;;;;;;;49.10;30.27;;;;;;;14.88;72.75;97475.65;1982394;90;21005;-63
2021/05/14 06:45:51;;;;;;;46.80;28.42;;;;;;;14.82;73.10;97474.92;2002872;89;21037;-63
2021/05/14 06:48:53;;;;;;;47.80;26.87;;;;;;;14.85;72.40;97485.67;1982524;90;21132;-63
2021/05/14 06:51:55;;;;;;;52.40;28.20;;;;;;;14.75;72.16;97484.44;2002865;89;21687;-62
2021/05/14 06:54:56;;;;;;;45.37;28.53;;;;;;;14.67;73.19;97490.48;1982515;90;21041;-62
2021/05/14 06:57:58;;;;;;;51.95;29.60;;;;;;;14.62;73.24;97488.78;2003032;89;21017;-62
2021/05/14 07:00:59;;;;;;;49.40;28.73;;;;;;;14.64;73.60;97494.75;1982500;90;21048;-63
2021/05/14 07:04:00;;;;;;;52.80;27.00;;;;;;;14.74;74.01;97496.00;2003150;89;21018;-63
2021/05/14 07:07:02;;;;;;;45.00;26.35;;;;;;;14.88;71.77;97491.48;1982450;90;21513;-62
2021/05/14 07:10:04;;;;;;;47.08;26.30;;;;;;;15.08;71.66;97504.48;2002986;89;21059;-63
2021/05/14 07:13:05;;;;;;;44.80;28.23;;;;;;;15.28;71.90;97497.69;1982398;90;21057;-62
2021/05/14 07:16:07;;;;;;;44.03;28.17;;;;;;;15.54;70.78;97497.66;2003076;89;21125;-63
2021/05/14 07:19:10;;;;;;;46.80;28.37;;;;;;;15.73;69.52;97501.40;1982578;90;21085;-62
2021/05/14 07:22:12;;;;;;;45.73;28.23;;;;;;;15.83;70.13;97497.34;2002866;89;21308;-63
2021/05/14 07:25:13;;;;;;;47.62;28.60;;;;;;;15.88;69.18;97501.64;1982388;90;21077;-63
2021/05/14 07:28:15;;;;;;;46.95;28.10;;;;;;;15.58;68.47;97513.04;2003111;89;21053;-62
2021/05/14 07:31:16;;;;;;;44.83;25.77;;;;;;;15.56;69.03;97499.67;1982525;90;21156;-63
2021/05/14 07:34:18;;;;;;;44.10;26.40;;;;;;;15.70;69.37;97508.80;2003007;89;21049;-62
2021/05/14 07:37:19;;;;;;;45.93;27.67;;;;;;;15.76;68.71;97510.84;1982493;90;21647;-63
2021/05/14 07:40:21;;;;;;;45.85;27.02;;;;;;;15.82;69.39;97503.61;2000856;89;21065;-63
2021/05/14 07:43:22;;;;;;;47.13;28.55;;;;;;;15.95;68.35;97513.74;1996217;89;21109;-63
2021/05/14 07:46:25;;;;;;;;;;;;;;;16.08;68.40;97514.11;1985508;90;21108;-64
2021/05/14 07:49:26;;;;;;;45.15;26.35;;;;;;;16.15;67.64;97518.75;1983104;90;20506;-63
2021/05/14 07:52:27;;;;;;;40.63;24.87;;;;;;;16.27;67.22;97507.70;1983327;89;21574;-63
2021/05/14 07:55:29;;;;;;;41.83;24.32;;;;;;;16.34;67.26;97509.22;1983357;89;21099;-63
2021/05/14 07:58:30;;;;;;;38.10;22.80;;;;;;;16.34;66.56;97509.22;1983314;89;21004;-64
2021/05/14 08:01:32;;;;;;;39.67;24.02;;;;;;;16.33;65.80;97515.49;1983136;89;21048;-63
2021/05/14 08:04:33;;;;;;;40.03;21.97;;;;;;;16.54;65.91;97515.55;1983439;89;21020;-65
2021/05/14 08:07:35;;;;;;;38.97;22.00;;;;;;;16.96;66.04;97513.28;1983324;89;21558;-63
2021/05/14 08:10:36;;;;;;;40.12;22.42;;;;;;;16.97;65.53;97513.11;1983151;89;21531;-63
2021/05/14 08:13:38;;;;;;;42.43;22.50;;;;;;;16.63;64.98;97511.41;1983196;89;21072;-63
2021/05/14 08:16:39;;;;;;;40.03;22.20;;;;;;;16.47;66.26;97514.55;1983333;89;21047;-63
2021/05/14 08:19:41;;;;;;;39.47;21.70;;;;;;;16.44;66.02;97517.84;1983279;89;21072;-63
2021/05/14 08:22:42;;;;;;;38.27;21.40;;;;;;;16.84;65.86;97516.73;1983299;89;21358;-64
2021/05/14 08:25:44;;;;;;;38.78;21.00;;;;;;;16.69;63.50;97523.16;1948935;90;21060;-63
2021/05/14 08:28:45;;;;;;;36.68;20.88;;;;;;;16.72;66.10;97529.47;1996166;89;21021;-63
2021/05/14 08:31:47;;;;;;;36.75;20.43;;;;;;;17.33;63.04;97523.02;1983175;90;21020;-64
2021/05/14 08:34:48;;;;;;;37.78;20.90;;;;;;;17.37;63.54;97533.12;1983284;89;21104;-63
2021/05/14 08:37:50;;;;;;;38.05;20.82;;;;;;;17.17;63.80;97533.97;1983004;89;21124;-66
2021/05/14 08:40:51;;;;;;;36.80;21.52;;;;;;;17.11;63.07;97536.78;2002907;89;21064;-63
2021/05/14 08:43:53;;;;;;;36.90;19.45;;;;;;;17.54;63.84;97539.22;1982300;90;21548;-64
2021/05/14 08:46:54;;;;;;;38.08;19.37;;;;;;;17.74;61.35;97540.98;2002891;89;21065;-64
2021/05/14 08:49:55;;;;;;;35.60;19.95;;;;;;;17.65;59.94;97542.80;1982433;90;21013;-64
2021/05/14 08:52:57;;;;;;;35.03;19.65;;;;;;;17.93;61.68;97546.42;2002896;89;21049;-64
2021/05/14 08:55:58;;;;;;;33.15;19.57;;;;;;;17.86;61.20;97541.44;1982335;90;21543;-63
2021/05/14 08:59:00;;;;;;;34.98;19.67;;;;;;;17.66;58.82;97545.80;2002905;89;21017;-65
2021/05/14 09:02:01;;;;;;;34.18;18.25;;;;;;;17.52;60.51;97543.84;1982424;90;21025;-64
2021/05/14 09:05:03;;;;;;;33.38;18.55;;;;;;;18.20;59.77;97543.48;2002761;89;21022;-64
2021/05/14 09:08:04;;;;;;;33.42;17.95;;;;;;;18.52;58.86;97537.17;1982434;90;21077;-63
2021/05/14 09:11:06;;;;;;;32.98;18.37;;;;;;;18.67;61.31;97535.39;2003007;89;21105;-63
2021/05/14 09:14:07;;;;;;;33.75;18.35;;;;;;;18.50;58.95;97545.31;1982458;90;21695;-63
2021/05/14 09:17:09;;;;;;;33.42;18.95;;;;;;;18.37;59.72;97550.86;2003010;89;21065;-64
2021/05/14 09:20:10;;;;;;;32.85;17.92;;;;;;;18.45;58.08;97538.87;1982298;90;21068;-63
2021/05/14 09:23:12;;;;;;;32.23;16.52;;;;;;;18.73;57.91;97554.29;2002780;89;21587;-63
2021/05/14 09:26:15;;;;;;;32.08;17.52;;;;;;;18.32;56.82;97564.66;1982426;90;21057;-63
2021/05/14 09:29:16;;;;;;;32.00;16.85;;;;;;;18.17;58.77;97550.80;2002628;89;21634;-64
2021/05/14 09:32:18;;;;;;;31.55;18.00;;;;;;;18.74;58.16;97557.28;1982353;90;21048;-63
2021/05/14 09:35:20;;;;;;;31.70;17.45;;;;;;;19.15;56.24;97550.34;2002771;89;21086;-65
2021/05/14 09:38:21;;;;;;;31.52;17.80;;;;;;;18.87;55.50;97578.79;1978500;89;21067;-64
2021/05/14 09:41:22;;;;;;;33.20;17.27;;;;;;;18.79;57.47;97562.87;1952173;91;21144;-65
2021/05/14 09:44:24;;;;;;;31.00;16.10;;;;;;;19.20;54.83;97555.95;1952069;91;21575;-66
2021/05/14 09:47:25;;;;;;;32.30;16.20;;;;;;;19.36;55.18;97558.45;1952279;91;21127;-64
2021/05/14 09:50:27;;;;;;;30.97;16.40;;;;;;;19.85;54.83;97556.33;1952037;91;21072;-64
2021/05/14 09:53:30;;;;;;;31.90;15.95;;;;;;;20.17;52.64;97558.28;1951997;91;21190;-64
2021/05/14 09:56:34;;;;;;;29.02;15.20;;;;;;;20.47;51.64;97557.71;1951932;91;21566;-64
2021/05/14 09:59:35;;;;;;;28.07;13.85;;;;;;;20.65;52.72;97565.30;1931815;91;21699;-65
2021/05/14 10:02:38;;;;;;;28.52;15.08;;;;;;;20.59;51.21;97574.05;1952069;91;21159;-64
2021/05/14 10:05:40;;;;;;;27.22;14.30;;;;;;;20.78;54.41;97561.16;1951935;91;21555;-64
2021/05/14 10:08:47;;;;;;;25.62;12.95;;;;;;;20.81;50.18;97563.44;1952168;91;21115;-64
2021/05/14 10:11:45;;;;;;;30.08;14.75;;;;;;;20.37;51.09;97567.84;1931674;91;21072;-64
2021/05/14 10:14:46;;;;;;;25.32;12.70;;;;;;;20.31;52.83;97569.41;1952133;91;21653;-65
2021/05/14 10:17:48;;;;;;;29.57;14.55;;;;;;;20.52;53.18;97563.83;1952388;91;21056;-65
2021/05/14 10:20:51;;;;;;;26.97;13.48;;;;;;;20.79;49.39;97555.64;1951999;91;21135;-64
2021/05/14 10:23:52;;;;;;;26.68;14.00;;;;;;;20.94;49.59;97560.90;1952133;91;21092;-65
2021/05/14 10:26:54;;;;;;;28.75;13.98;;;;;;;20.72;50.19;97571.55;1952297;91;21581;-65
2021/05/14 10:29:55;;;;;;;30.02;13.98;;;;;;;20.40;50.10;97558.98;1952296;91;21087;-65
2021/05/14 10:32:58;;;;;;;27.80;12.88;;;;;;;20.02;51.33;97559.12;1952176;91;21083;-65
2021/05/14 10:36:00;;;;;;;26.02;11.85;;;;;;;20.04;52.44;97559.78;1952064;91;21562;-65
2021/05/14 10:39:02;;;;;;;26.15;11.45;;;;;;;21.05;51.19;97552.91;1952083;90;21183;-64
2021/05/14 10:42:05;;;;;;;25.02;11.45;;;;;;;21.46;48.16;97554.37;1952178;91;21582;-65
2021/05/14 10:45:06;;;;;;;26.95;11.97;;;;;;;21.28;46.09;97552.17;1952198;91;21095;-64
2021/05/14 10:51:11;;;;;;;24.52;11.68;;;;;;;20.92;47.03;97561.09;1931817;91;21705;-64
2021/05/14 10:54:12;;;;;;;25.00;11.30;;;;;;;20.99;50.97;97556.31;1952397;91;21091;-63
2021/05/14 10:57:14;;;;;;;28.73;13.30;;;;;;;20.57;48.42;97567.58;1952295;91;21698;-64
2021/05/14 11:00:15;;;;;;;27.98;11.48;;;;;;;20.52;47.92;97561.98;1952274;91;21076;-65
2021/05/14 11:03:17;;;;;;;26.10;12.00;;;;;;;20.46;49.92;97563.22;1952289;91;21051;-64
2021/05/14 11:06:19;;;;;;;26.15;12.07;;;;;;;20.55;49.75;97564.78;1952161;91;21123;-65
2021/05/14 11:09:20;;;;;;;;;;;;;;;20.34;50.68;97558.41;1954489;91;21096;-65
2021/05/14 11:12:22;;;;;;;24.32;10.65;;;;;;;20.00;50.47;97566.98;1952337;91;20247;-64
2021/05/14 11:15:23;;;;;;;23.65;10.65;;;;;;;19.69;49.62;97570.61;1952284;91;21119;-64
2021/05/14 11:18:26;;;;;;;25.10;11.25;;;;;;;19.44;51.97;97559.38;1952204;91;21670;-64
2021/05/14 11:21:27;;;;;;;25.95;11.93;;;;;;;19.27;53.33;97566.19;1952244;91;21066;-64
2021/05/14 11:24:29;;;;;;;24.70;11.83;;;;;;;19.04;53.13;97574.19;1952123;91;21203;-64
2021/05/14 11:27:30;;;;;;;26.15;11.78;;;;;;;18.83;52.27;97577.45;1952393;91;21046;-64
2021/05/14 11:30:32;;;;;;;26.75;12.40;;;;;;;18.69;53.19;97583.86;1952246;91;21135;-65
2021/05/14 11:33:33;;;;;;;26.70;11.40;;;;;;;18.57;53.13;97587.09;1952153;91;21056;-65
2021/05/14 11:36:34;;;;;;;26.70;10.70;;;;;;;18.33;53.37;97591.51;1952237;91;21063;-63
2021/05/14 11:39:36;;;;;;;23.57;10.25;;;;;;;18.15;53.05;97595.74;1961582;89;21164;-64
2021/05/14 11:42:38;;;;;;;26.27;11.28;;;;;;;18.04;53.66;97604.08;1996409;89;21100;-65
2021/05/14 11:45:40;;;;;;;25.30;10.45;;;;;;;18.04;54.62;97606.22;1996065;89;21655;-65
2021/05/14 11:48:42;;;;;;;25.60;10.72;;;;;;;18.11;55.29;97602.39;1996261;89;21066;-64
2021/05/14 11:51:43;;;;;;;25.92;10.78;;;;;;;18.18;54.76;97605.50;1996104;89;21217;-64
2021/05/14 11:54:44;;;;;;;25.43;11.33;;;;;;;18.17;55.22;97610.50;1996203;89;21089;-65
2021/05/14 11:57:46;;;;;;;23.60;10.55;;;;;;;18.15;55.37;97603.70;1996270;89;21061;-65
2021/05/14 12:00:50;;;;;;;23.75;10.35;;;;;;;18.26;54.38;97607.80;1996125;89;21584;-64
2021/05/14 12:03:51;;;;;;;22.25;8.85;;;;;;;18.26;54.41;97611.30;1999138;89;21138;-69
2021/05/14 12:06:53;;;;;;;26.80;10.23;;;;;;;18.29;54.97;97617.58;1996459;89;21033;-67
2021/05/14 12:09:54;;;;;;;25.30;10.53;;;;;;;18.29;55.58;97612.78;1996252;89;21117;-65
2021/05/14 12:12:55;;;;;;;26.27;10.35;;;;;;;18.22;54.51;97616.61;1996223;89;21073;-66
2021/05/14 12:15:57;;;;;;;26.02;9.70;;;;;;;18.23;54.73;97606.34;1996352;89;21130;-68
2021/05/14 12:19:02;;;;;;;24.55;9.80;;;;;;;18.41;55.40;97615.87;1996230;89;21591;-66
2021/05/14 12:22:02;;;;;;;22.05;8.73;;;;;;;18.89;53.45;97621.94;1999097;89;21703;-66
2021/05/14 12:25:03;;;;;;;23.42;8.80;;;;;;;18.80;52.08;97625.11;1996368;89;21053;-69
2021/05/14 12:28:04;;;;;;;22.93;8.75;;;;;;;18.74;52.68;97624.49;1996254;89;21124;-64
2021/05/14 12:31:06;;;;;;;22.90;9.13;;;;;;;18.72;53.13;97626.51;1996310;89;21070;-67
2021/05/14 12:34:07;;;;;;;23.00;8.33;;;;;;;18.78;55.45;97628.45;1996333;89;21152;-64
2021/05/14 12:37:09;;;;;;;20.57;8.60;;;;;;;19.09;53.99;97624.14;1996215;89;21588;-64
2021/05/14 12:40:10;;;;;;;22.60;9.00;;;;;;;19.23;54.57;97634.00;1998179;88;21200;-64
2021/05/14 12:43:12;;;;;;;22.15;8.75;;;;;;;19.06;53.71;97633.80;2001066;88;21064;-63
2021/05/14 12:46:14;;;;;;;23.42;8.68;;;;;;;18.97;53.82;97625.88;2000750;88;21564;-64
2021/05/14 12:49:16;;;;;;;22.25;9.13;;;;;;;18.92;54.33;97635.38;2000900;88;21096;-64
2021/05/14 12:52:17;;;;;;;22.00;9.43;;;;;;;18.77;55.80;97640.08;2000979;88;21061;-64
2021/05/14 12:55:20;;;;;;;21.33;8.98;;;;;;;18.80;56.31;97638.91;2000941;88;21113;-65
2021/05/14 12:58:22;;;;;;;22.02;8.23;;;;;;;18.82;55.51;97635.56;2000842;88;21109;-66
2021/05/14 13:01:23;;;;;;;24.07;8.95;;;;;;;18.95;56.32;97632.36;2000929;88;21037;-66
2021/05/14 13:04:24;;;;;;;22.42;8.43;;;;;;;19.43;53.21;97634.85;2000851;88;21069;-66
2021/05/14 13:07:26;;;;;;;23.77;8.28;;;;;;;19.38;53.17;97648.69;2000833;88;21575;-65
2021/05/14 13:10:28;;;;;;;22.10;7.97;;;;;;;19.29;54.32;97666.50;2001053;88;21064;-65
2021/05/14 13:13:31;;;;;;;19.62;7.20;;;;;;;19.19;52.88;97660.13;2000770;88;21100;-69
2021/05/14 13:16:32;;;;;;;22.62;7.83;;;;;;;19.04;52.67;97662.69;2000640;89;21145;-65
2021/05/14 13:19:34;;;;;;;22.13;7.83;;;;;;;18.90;53.59;97677.23;2000733;88;21025;-65
2021/05/14 13:22:35;;;;;;;20.12;7.62;;;;;;;19.37;51.76;97678.41;2000881;88;21029;-65
2021/05/14 13:25:37;;;;;;;19.67;7.80;;;;;;;19.49;51.42;97684.64;2000823;88;21053;-65
2021/05/14 13:28:39;;;;;;;20.00;7.87;;;;;;;19.52;52.33;97679.81;2000789;89;21084;-67
2021/05/14 13:31:40;;;;;;;20.43;7.45;;;;;;;19.16;52.59;97693.67;2001128;89;21021;-65
2021/05/14 13:34:42;;;;;;;21.90;7.65;;;;;;;18.95;52.67;97689.00;2000787;88;21562;-65
2021/05/14 13:37:43;;;;;;;24.02;8.00;;;;;;;18.82;52.58;97683.37;2001050;88;21045;-65
2021/05/14 13:40:45;;;;;;;20.32;7.72;;;;;;;18.75;52.73;97690.38;2001729;88;21121;-64
2021/05/14 13:43:47;;;;;;;21.45;8.68;;;;;;;18.89;52.78;97692.33;2002671;88;21447;-65
2021/05/14 13:46:48;;;;;;;17.85;7.05;;;;;;;19.16;52.35;97696.84;1982302;90;21069;-66
2021/05/14 13:49:50;;;;;;;22.20;7.28;;;;;;;19.29;51.82;97704.23;1982283;90;21128;-66
2021/05/14 13:52:51;;;;;;;17.67;6.17;;;;;;;19.16;50.69;97692.34;1982468;90;21049;-65
2021/05/14 13:55:53;;;;;;;;;;;;;;;19.01;49.78;97705.56;1984648;90;21065;-64
2021/05/14 13:58:55;;;;;;;19.50;6.22;;;;;;;18.97;50.34;97707.42;1969657;90;20252;-64
2021/05/14 14:01:56;;;;;;;20.32;7.08;;;;;;;18.89;51.28;97694.98;1982265;90;21045;-64
2021/05/14 14:04:58;;;;;;;19.10;6.70;;;;;;;18.93;50.67;97690.98;1982416;90;21137;-68